Abbot, ME

8:14 PM EDT on May 28, 2015 (GMT -0400)
Millinocket Municipal | | Change Station
CLOSE
Current Station
Airport
Location: Millinocket,
Elevation: 407 ft
Nearby Weather Stations

Elev 407 ft 45.65 °N, 68.69 °W | Updated 21 minutes ago

Overcast
Overcast
68 °F
Feels Like 68 °F
N
0
Wind Variable Wind from North

Today
High -- | Low -- °F
--% Chance of Precip.
Yesterday
High -- | Low -- °F
Precip. -- in
4:56 AM 8:15 PM
Waxing Gibbous, 79% visible
Pressure 30.09 in
Visibility 8.0 miles
Clouds Scattered Clouds 600 ft
Scattered Clouds 2700 ft
Overcast 7500 ft
Dew Point 65 °F
Humidity 90%
Rainfall 0.30 in
Snow Depth Not available.
UV 0 out of 12
Pollen 7.20 out of 12
Air Quality Not available.
Flu Activity Local Activity
METAR KMLT 282353Z AUTO 00000KT 8SM -RA SCT006 SCT027 OVC075 20/18 A3007 RMK AO2 RAB42 SLP187 P0000 60017 T02000183 10217 20194 51020

More Conditions Fewer Conditions

Pressure 30.09 in
Visibility 8.0 miles
Clouds Scattered Clouds 600 ft
Scattered Clouds 2700 ft
Overcast 7500 ft
Dew Point 65 °F
Humidity 90%
Rainfall 0.30 in
Snow Depth Not available.
UV 0 out of 12
Pollen 7.20 out of 12
Air Quality Not available.
Flu Activity Local Activity
METAR KMLT 282353Z AUTO 00000KT 8SM -RA SCT006 SCT027 OVC075 20/18 A3007 RMK AO2 RAB42 SLP187 P0000 60017 T02000183 10217 20194 51020

More Conditions Fewer Conditions

10-Day Weather Forecast

Almanac

Astronomy

May. 28, 2015 Rise Set
Actual Time
Civil Twilight
Nautical Twilight
Astronomical Twilight
Moon
Length of Visible Light
Length of Day
Tomorrow will be .
, % of the Moon is Illuminated

Today's Extremes

State Highs State Lows

Community

WunderPhotos

Upload Photos

1,825,097 photos uploaded!

WunderBlogs® & News

Nearby

Air Quality

  Air Quality AQ Index Pollutant
Not available.

Snow Depth

Station Depth Elevation

Earthquake Activity

City Distance Mag. Time & Date
Minimum magnitude displayed is 2.5.

Coastal Water Temperatures

Place Temperature

Stations

Nearby Weather Stations

Station Location Temp. Windchill Dew Point Humidity Wind Precip. Elev Updated Type